Time;durP1;ratioP1;P1;durP2;ratioP2;P2;SDS_P1;SDS_P2;PMS_P1;PMS_P2;Temp;Humidity;BMP_temperature;BMP_pressure;BME280_temperature;BME280_humidity;BME280_pressure;Samples;Min_cycle;Max_cycle;Signal;HPM_P1;HPM_P2
2023/04/14 00:00:58;;;;;;;2.42;2.10;;;4.10;99.90;;;;;;4904389;29;20035;-75
2023/04/14 00:03:23;;;;;;;4.47;2.40;;;4.00;99.90;;;;;;4903117;29;20047;-74
2023/04/14 00:05:49;;;;;;;5.90;2.45;;;4.10;99.90;;;;;;4904318;29;20032;-74
2023/04/14 00:08:14;;;;;;;3.65;2.15;;;4.10;99.90;;;;;;4903511;29;20028;-74
2023/04/14 00:10:40;;;;;;;4.68;2.33;;;4.00;99.90;;;;;;4902746;29;20409;-74
2023/04/14 00:13:06;;;;;;;5.18;2.83;;;4.10;99.90;;;;;;4902952;29;20126;-74
2023/04/14 00:15:31;;;;;;;4.68;2.20;;;4.10;99.90;;;;;;4904786;29;20039;-76
2023/04/14 00:17:57;;;;;;;6.07;2.20;;;4.10;99.90;;;;;;4900300;29;20047;-75
2023/04/14 00:20:23;;;;;;;4.03;2.20;;;4.10;99.90;;;;;;4901870;29;20028;-75
2023/04/14 00:22:48;;;;;;;4.25;2.40;;;4.10;99.90;;;;;;4885037;29;20488;-75
2023/04/14 00:25:14;;;;;;;3.38;1.85;;;4.10;99.90;;;;;;4901245;29;20107;-75
2023/04/14 00:27:40;;;;;;;7.70;1.73;;;4.10;99.90;;;;;;4899550;29;20408;-75
2023/04/14 00:30:06;;;;;;;5.93;2.08;;;4.20;99.90;;;;;;4903293;29;20027;-75
2023/04/14 00:32:31;;;;;;;5.35;2.20;;;4.40;99.90;;;;;;4902374;29;20036;-75
2023/04/14 00:34:59;;;;;;;6.22;2.05;;;4.50;99.90;;;;;;4903418;29;20041;-75
2023/04/14 00:37:24;;;;;;;6.18;1.85;;;4.50;99.90;;;;;;4902362;29;20035;-75
2023/04/14 00:39:50;;;;;;;6.50;2.15;;;4.50;99.90;;;;;;4901425;29;20032;-75
2023/04/14 00:42:16;;;;;;;5.15;1.95;;;4.40;99.90;;;;;;4902652;29;20138;-75
2023/04/14 00:44:41;;;;;;;5.70;2.28;;;4.40;99.90;;;;;;4903113;29;20990;-75
2023/04/14 00:47:09;;;;;;;6.15;1.83;;;4.40;99.90;;;;;;4902044;29;20044;-75
2023/04/14 00:49:36;;;;;;;5.22;2.03;;;4.40;99.90;;;;;;4902698;29;20032;-75
2023/04/14 00:52:02;;;;;;;2.92;1.83;;;4.40;99.90;;;;;;4902149;29;20036;-76
2023/04/14 00:54:30;;;;;;;6.22;2.53;;;4.40;99.90;;;;;;4902741;29;20051;-76
2023/04/14 00:56:56;;;;;;;5.07;2.63;;;4.40;99.90;;;;;;4901667;29;20064;-75
2023/04/14 00:59:22;;;;;;;5.55;2.50;;;4.30;99.90;;;;;;4903487;29;20024;-76
2023/04/14 01:01:48;;;;;;;3.55;2.03;;;4.30;99.90;;;;;;4901583;29;20038;-75
2023/04/14 01:04:15;;;;;;;6.60;2.15;;;4.30;99.90;;;;;;4897449;29;20028;-76
2023/04/14 01:06:40;;;;;;;4.00;1.52;;;4.30;99.90;;;;;;4901203;29;20051;-75
2023/04/14 01:09:08;;;;;;;5.93;1.60;;;4.40;99.90;;;;;;4902771;29;20031;-76
2023/04/14 01:12:13;;;;;;;5.47;2.33;;;4.50;99.90;;;;;;4900065;29;20025;-74
2023/04/14 01:14:54;;;;;;;5.32;2.47;;;4.50;99.90;;;;;;4890597;29;20596;-75
2023/04/14 01:17:29;;;;;;;2.95;2.15;;;4.40;99.90;;;;;;4902061;29;20036;-75
2023/04/14 01:20:13;;;;;;;5.25;2.35;;;4.40;99.90;;;;;;4900423;29;20064;-75
2023/04/14 01:22:49;;;;;;;6.60;2.47;;;4.40;99.90;;;;;;4903049;29;20036;-75
2023/04/14 01:25:38;;;;;;;3.42;2.40;;;4.40;99.90;;;;;;4902509;29;20036;-75
2023/04/14 01:28:28;;;;;;;5.70;2.63;;;4.40;99.90;;;;;;4901240;29;20052;-75
2023/04/14 01:31:08;;;;;;;7.70;2.53;;;4.40;99.90;;;;;;4888681;29;20088;-75
2023/04/14 01:33:37;;;;;;;6.65;3.05;;;4.50;99.90;;;;;;4893381;29;20062;-75
2023/04/14 01:36:08;;;;;;;4.97;2.72;;;4.50;99.90;;;;;;4898776;29;20028;-76
2023/04/14 01:38:36;;;;;;;5.72;2.72;;;4.60;99.90;;;;;;4901885;29;20040;-75
2023/04/14 01:41:06;;;;;;;3.72;2.13;;;4.70;99.90;;;;;;4902508;29;20200;-75
2023/04/14 01:43:36;;;;;;;8.27;2.17;;;4.70;99.90;;;;;;4905333;29;20040;-75
2023/04/14 01:46:06;;;;;;;11.98;2.72;;;4.80;99.90;;;;;;4904908;29;20172;-75
2023/04/14 01:48:32;;;;;;;4.95;2.28;;;4.80;99.90;;;;;;4906207;29;20123;-74
2023/04/14 01:51:00;;;;;;;4.70;2.17;;;4.90;99.90;;;;;;4902370;29;20028;-75
2023/04/14 01:53:29;;;;;;;3.72;2.28;;;4.90;99.90;;;;;;4901130;29;20119;-74
2023/04/14 01:55:56;;;;;;;5.68;2.05;;;4.90;99.90;;;;;;4888157;29;20035;-74
2023/04/14 01:58:24;;;;;;;3.85;2.20;;;5.00;99.90;;;;;;4902870;29;20099;-75
2023/04/14 02:00:51;;;;;;;10.65;2.63;;;5.10;99.90;;;;;;4904424;29;20513;-74
2023/04/14 02:03:19;;;;;;;4.55;2.35;;;5.10;99.90;;;;;;4895973;29;20080;-75
2023/04/14 02:05:46;;;;;;;4.63;1.98;;;5.10;99.90;;;;;;4897043;29;20048;-74
2023/04/14 02:08:13;;;;;;;5.20;2.17;;;5.10;99.90;;;;;;4903691;29;20456;-75
2023/04/14 02:10:42;;;;;;;5.10;2.15;;;5.10;99.90;;;;;;4904841;29;20094;-74
2023/04/14 02:13:10;;;;;;;6.28;1.98;;;5.00;99.90;;;;;;4904541;29;20547;-75
2023/04/14 02:15:36;;;;;;;4.03;1.83;;;5.10;99.90;;;;;;4904404;29;20028;-74
2023/04/14 02:18:04;;;;;;;4.32;2.00;;;5.10;99.90;;;;;;4891433;29;20028;-74
2023/04/14 02:20:31;;;;;;;8.40;2.13;;;5.10;99.90;;;;;;4895834;29;20039;-75
2023/04/14 02:22:57;;;;;;;5.28;2.00;;;5.00;99.90;;;;;;4904416;29;20076;-74
2023/04/14 02:25:27;;;;;;;3.85;1.80;;;5.00;99.90;;;;;;4904553;29;20178;-75
2023/04/14 02:27:55;;;;;;;8.73;1.50;;;5.10;99.90;;;;;;4903145;29;20179;-75
2023/04/14 02:30:32;;;;;;;5.07;1.42;;;5.10;99.90;;;;;;4903869;29;20055;-76
2023/04/14 02:33:07;;;;;;;6.47;1.63;;;5.00;99.90;;;;;;4905582;29;20067;-74
2023/04/14 02:35:40;;;;;;;5.85;1.30;;;5.10;99.90;;;;;;4904062;29;20104;-75
2023/04/14 02:38:13;;;;;;;4.43;1.50;;;5.10;99.90;;;;;;4889097;29;20103;-75
2023/04/14 02:40:41;;;;;;;17.90;2.20;;;5.20;99.90;;;;;;4885433;29;20643;-75
2023/04/14 02:43:12;;;;;;;6.70;1.60;;;5.30;99.90;;;;;;4900969;29;20468;-74
2023/04/14 02:45:39;;;;;;;;;;;5.30;99.90;;;;;;4903811;29;20480;-75
2023/04/14 02:48:10;;;;;;;5.32;1.45;;;5.40;99.90;;;;;;4903032;29;20014;-74
2023/04/14 02:50:38;;;;;;;11.70;1.90;;;5.40;99.90;;;;;;4901497;29;20112;-75
2023/04/14 02:53:06;;;;;;;10.23;1.90;;;5.40;99.90;;;;;;4903640;29;20047;-75
2023/04/14 02:55:32;;;;;;;8.73;1.50;;;5.40;99.90;;;;;;4896035;29;20036;-74
2023/04/14 02:57:59;;;;;;;13.88;2.60;;;5.40;99.90;;;;;;4904228;29;20040;-75
2023/04/14 03:00:26;;;;;;;8.32;1.50;;;5.40;99.90;;;;;;4904986;29;20396;-74
2023/04/14 03:02:53;;;;;;;6.03;1.20;;;5.30;99.90;;;;;;4905645;29;20032;-75
2023/04/14 03:05:19;;;;;;;5.95;1.42;;;5.30;99.90;;;;;;4902874;29;20091;-74
2023/04/14 03:07:46;;;;;;;8.10;1.30;;;5.30;99.90;;;;;;4902330;29;20054;-74
2023/04/14 03:10:13;;;;;;;10.50;2.08;;;5.40;99.90;;;;;;4901193;29;20039;-74
2023/04/14 03:12:40;;;;;;;5.95;1.15;;;5.40;99.90;;;;;;4903424;29;20100;-75
2023/04/14 03:15:06;;;;;;;4.80;1.13;;;5.30;99.90;;;;;;4904409;29;20028;-74
2023/04/14 03:17:33;;;;;;;12.15;1.60;;;5.40;99.90;;;;;;4903010;29;20039;-74
2023/04/14 03:20:00;;;;;;;9.50;1.33;;;5.40;99.90;;;;;;4903410;29;20074;-74
2023/04/14 03:22:27;;;;;;;6.40;1.27;;;5.40;99.90;;;;;;4902679;29;20036;-74
2023/04/14 03:24:57;;;;;;;6.70;1.55;;;5.30;99.90;;;;;;4902157;29;20043;-74
2023/04/14 03:27:26;;;;;;;6.53;1.45;;;5.40;99.90;;;;;;4903395;29;20629;-74
2023/04/14 03:29:55;;;;;;;11.43;1.42;;;5.30;99.90;;;;;;4901132;29;20527;-74
2023/04/14 03:32:24;;;;;;;10.63;1.75;;;5.40;99.90;;;;;;4903195;29;20135;-74
2023/04/14 03:34:55;;;;;;;11.98;1.73;;;5.50;99.90;;;;;;4903812;29;20028;-74
2023/04/14 03:37:25;;;;;;;5.30;1.58;;;5.70;99.90;;;;;;4904083;29;20036;-74
2023/04/14 03:39:51;;;;;;;15.00;1.75;;;5.80;99.90;;;;;;4903156;29;20535;-74
2023/04/14 03:42:21;;;;;;;11.82;1.50;;;5.80;99.90;;;;;;4900388;29;20096;-74
2023/04/14 03:44:52;;;;;;;7.55;1.60;;;5.70;99.90;;;;;;4902687;29;20047;-75
2023/04/14 03:47:18;;;;;;;10.90;1.95;;;5.70;99.90;;;;;;4902379;29;20135;-74
2023/04/14 03:49:46;;;;;;;14.13;1.70;;;5.70;99.90;;;;;;4902997;29;20159;-75
2023/04/14 03:52:14;;;;;;;13.27;1.60;;;5.70;99.90;;;;;;4903747;29;20119;-74
2023/04/14 03:54:42;;;;;;;8.25;1.40;;;5.70;99.90;;;;;;4900586;29;20315;-73
2023/04/14 03:57:10;;;;;;;12.38;1.58;;;5.70;99.90;;;;;;4899341;29;20043;-75
2023/04/14 03:59:37;;;;;;;10.30;1.42;;;5.70;99.90;;;;;;4888622;29;20040;-75
2023/04/14 04:02:04;;;;;;;7.88;1.90;;;5.70;99.90;;;;;;4888405;29;20033;-75
2023/04/14 04:04:30;;;;;;;13.48;1.50;;;5.70;99.90;;;;;;4885128;29;20083;-75
2023/04/14 04:06:57;;;;;;;11.48;1.58;;;5.70;99.90;;;;;;4890345;29;20095;-75
2023/04/14 04:09:24;;;;;;;10.35;1.60;;;5.70;99.90;;;;;;4902588;29;20040;-73
2023/04/14 04:11:51;;;;;;;12.25;2.28;;;5.80;99.90;;;;;;4902367;29;20040;-75
2023/04/14 04:14:20;;;;;;;12.05;1.85;;;5.80;99.90;;;;;;4904474;29;20523;-75
2023/04/14 04:16:48;;;;;;;6.28;1.30;;;5.90;99.90;;;;;;4902591;29;20152;-73
2023/04/14 04:19:17;;;;;;;19.25;1.80;;;6.00;99.90;;;;;;4892056;29;20437;-74
2023/04/14 04:21:44;;;;;;;14.50;2.05;;;6.00;99.90;;;;;;4883441;29;20048;-74
2023/04/14 04:24:12;;;;;;;10.45;1.67;;;6.00;99.90;;;;;;4884641;29;20404;-74
2023/04/14 04:26:37;;;;;;;18.15;2.05;;;6.00;99.90;;;;;;4902894;29;20036;-75
2023/04/14 04:29:04;;;;;;;12.77;1.83;;;6.10;99.90;;;;;;4903480;29;20048;-74
2023/04/14 04:31:31;;;;;;;11.25;2.05;;;6.10;99.90;;;;;;4902424;29;20020;-74
2023/04/14 04:33:57;;;;;;;11.18;1.20;;;6.20;99.90;;;;;;4902071;29;20036;-74
2023/04/14 04:36:26;;;;;;;7.70;1.30;;;6.20;99.90;;;;;;4892432;29;20032;-74
2023/04/14 04:38:52;;;;;;;17.33;1.80;;;6.30;99.90;;;;;;4901905;29;20535;-74
2023/04/14 04:41:25;;;;;;;12.23;1.63;;;6.30;99.90;;;;;;4902638;29;20167;-74
2023/04/14 04:43:50;;;;;;;11.50;1.38;;;6.30;99.90;;;;;;4902803;29;20036;-75
2023/04/14 04:46:27;;;;;;;14.30;1.98;;;6.40;99.90;;;;;;4903191;29;20081;-74
2023/04/14 04:48:54;;;;;;;13.48;1.42;;;6.40;99.90;;;;;;4902543;29;20135;-75
2023/04/14 04:51:20;;;;;;;14.02;1.65;;;6.50;99.90;;;;;;4903136;29;20047;-75
2023/04/14 04:53:45;;;;;;;15.23;1.42;;;6.60;99.90;;;;;;4889515;29;20033;-74
2023/04/14 04:56:11;;;;;;;22.65;2.70;;;6.60;99.90;;;;;;4898320;29;20036;-75
2023/04/14 04:58:37;;;;;;;13.52;1.83;;;6.60;99.90;;;;;;4901661;29;20031;-75
2023/04/14 05:01:09;;;;;;;19.35;2.22;;;6.60;99.90;;;;;;4903311;29;20036;-75
2023/04/14 05:03:35;;;;;;;6.45;1.20;;;6.70;99.90;;;;;;4899013;29;20123;-74
2023/04/14 05:06:01;;;;;;;11.52;1.77;;;6.80;99.90;;;;;;4900335;29;20119;-74
2023/04/14 05:08:26;;;;;;;9.13;1.30;;;6.90;99.90;;;;;;4900112;29;20044;-73
2023/04/14 05:10:52;;;;;;;21.88;1.90;;;7.10;99.90;;;;;;4898501;29;20036;-74
2023/04/14 05:13:18;;;;;;;11.32;1.63;;;7.20;99.90;;;;;;4899708;29;20046;-75
2023/04/14 05:15:43;;;;;;;13.25;2.22;;;7.40;99.90;;;;;;4895102;29;20024;-75
2023/04/14 05:18:09;;;;;;;14.90;2.17;;;7.40;99.90;;;;;;4902067;29;20032;-73
2023/04/14 05:20:35;;;;;;;13.13;2.00;;;7.40;99.90;;;;;;4904254;29;20036;-74
2023/04/14 05:23:01;;;;;;;15.02;1.65;;;7.40;99.90;;;;;;4903789;29;20036;-75
2023/04/14 05:25:27;;;;;;;14.90;2.30;;;7.50;99.90;;;;;;4903563;29;20040;-75
2023/04/14 05:27:52;;;;;;;13.80;1.75;;;7.50;99.90;;;;;;4902698;29;20051;-74
2023/04/14 05:30:18;;;;;;;11.13;2.42;;;7.50;99.90;;;;;;4905120;29;20028;-74
2023/04/14 05:32:43;;;;;;;12.13;1.90;;;7.60;99.90;;;;;;4904296;29;20130;-74
2023/04/14 05:35:09;;;;;;;13.98;2.10;;;7.60;99.90;;;;;;4903324;29;20026;-73
2023/04/14 05:37:35;;;;;;;12.60;1.70;;;7.70;99.90;;;;;;4905082;29;20113;-74
2023/04/14 05:40:00;;;;;;;10.82;1.63;;;7.70;99.90;;;;;;4906076;29;20036;-74
2023/04/14 05:42:26;;;;;;;22.35;2.70;;;7.80;99.90;;;;;;4904771;29;20032;-74
2023/04/14 05:44:51;;;;;;;14.43;2.22;;;7.80;99.90;;;;;;4904458;29;20087;-74
2023/04/14 05:47:17;;;;;;;11.85;1.50;;;7.80;99.90;;;;;;4901422;29;20044;-75
2023/04/14 05:49:43;;;;;;;18.25;1.95;;;7.80;99.90;;;;;;4904698;29;20032;-74
2023/04/14 05:52:09;;;;;;;20.60;2.30;;;7.80;99.90;;;;;;4900843;29;20036;-74
2023/04/14 05:54:35;;;;;;;16.00;1.95;;;7.80;99.90;;;;;;4903682;29;20036;-74
2023/04/14 05:57:00;;;;;;;13.55;1.63;;;7.90;99.90;;;;;;4904838;29;20032;-74
2023/04/14 05:59:26;;;;;;;21.88;2.50;;;7.90;99.90;;;;;;4906294;29;20043;-75
2023/04/14 06:01:52;;;;;;;14.82;1.50;;;8.00;99.90;;;;;;4903113;29;20119;-75
2023/04/14 06:04:17;;;;;;;13.45;1.38;;;8.00;99.90;;;;;;4902453;29;20039;-75
2023/04/14 06:06:43;;;;;;;14.13;1.50;;;8.10;99.90;;;;;;4898105;29;20150;-74
2023/04/14 06:09:08;;;;;;;14.15;1.67;;;8.10;99.90;;;;;;4901291;29;20083;-75
2023/04/14 06:11:34;;;;;;;15.23;2.00;;;8.20;99.90;;;;;;4905325;29;20040;-74
2023/04/14 06:14:01;;;;;;;14.38;1.67;;;8.20;99.90;;;;;;4905627;29;20038;-74
2023/04/14 06:16:27;;;;;;;23.05;1.83;;;8.30;99.90;;;;;;4904945;29;20088;-74
2023/04/14 06:18:52;;;;;;;13.95;1.80;;;8.40;99.90;;;;;;4898541;29;20310;-74
2023/04/14 06:21:18;;;;;;;18.50;1.65;;;8.50;99.90;;;;;;4900206;29;20080;-75
2023/04/14 06:23:44;;;;;;;17.42;1.80;;;8.50;99.90;;;;;;4892882;29;20040;-75
2023/04/14 06:26:10;;;;;;;16.58;2.15;;;8.60;99.90;;;;;;4899100;29;20535;-74
2023/04/14 06:28:36;;;;;;;17.13;2.08;;;8.60;99.90;;;;;;4898100;29;20043;-75
2023/04/14 06:31:02;;;;;;;14.27;2.05;;;8.60;99.90;;;;;;4900220;29;20958;-75
2023/04/14 06:33:27;;;;;;;14.80;1.60;;;8.60;99.90;;;;;;4898834;29;20032;-74
2023/04/14 06:35:53;;;;;;;8.85;2.33;;;8.60;99.90;;;;;;4901319;29;20758;-75
2023/04/14 06:38:19;;;;;;;7.13;1.25;;;8.60;99.90;;;;;;4897712;29;20039;-74
2023/04/14 06:40:45;;;;;;;8.65;1.58;;;8.60;99.90;;;;;;4897075;29;20041;-74
2023/04/14 06:43:10;;;;;;;8.35;1.88;;;8.70;99.90;;;;;;4898603;29;20036;-74
2023/04/14 06:45:36;;;;;;;12.18;1.35;;;8.80;99.90;;;;;;4906449;29;20031;-75
2023/04/14 06:48:02;;;;;;;10.15;1.40;;;9.00;99.90;;;;;;4903384;29;20055;-75
2023/04/14 06:50:27;;;;;;;10.13;1.60;;;9.20;99.90;;;;;;4905192;29;20063;-74
2023/04/14 06:52:53;;;;;;;7.60;1.20;;;9.40;99.90;;;;;;4900755;29;20071;-74
2023/04/14 06:55:20;;;;;;;10.20;1.30;;;9.70;99.90;;;;;;4898412;29;20762;-75
2023/04/14 06:57:46;;;;;;;14.23;2.10;;;9.80;99.90;;;;;;4904316;29;20061;-74
2023/04/14 07:00:12;;;;;;;7.10;1.33;;;10.00;99.90;;;;;;4903682;29;20035;-74
2023/04/14 07:02:37;;;;;;;9.98;1.73;;;10.10;99.90;;;;;;4896376;29;20056;-75
2023/04/14 07:05:04;;;;;;;10.73;1.80;;;10.10;99.90;;;;;;4902440;29;20028;-75
2023/04/14 07:07:36;;;;;;;11.18;1.23;;;10.20;99.90;;;;;;4901918;29;20059;-74
2023/04/14 07:10:02;;;;;;;9.30;1.00;;;10.10;99.90;;;;;;4903773;29;20028;-74
2023/04/14 07:12:28;;;;;;;15.98;1.70;;;10.00;99.90;;;;;;4900890;29;20448;-75
2023/04/14 07:14:53;;;;;;;11.25;1.38;;;10.00;99.90;;;;;;4895661;29;20047;-74
2023/04/14 07:17:19;;;;;;;11.57;1.40;;;10.10;99.90;;;;;;4904743;29;20036;-75
2023/04/14 07:19:45;;;;;;;12.40;1.58;;;10.30;99.90;;;;;;4904255;29;20062;-75
2023/04/14 07:22:11;;;;;;;7.68;1.08;;;10.40;99.90;;;;;;4903575;29;20028;-75
2023/04/14 07:24:37;;;;;;;9.80;1.38;;;10.60;99.90;;;;;;4900054;29;20036;-75
2023/04/14 07:27:06;;;;;;;9.40;1.30;;;10.70;99.90;;;;;;4900115;29;20036;-75
2023/04/14 07:29:32;;;;;;;8.20;1.48;;;10.80;99.90;;;;;;4903211;29;20040;-75
2023/04/14 07:31:58;;;;;;;8.82;1.98;;;10.80;99.90;;;;;;4902523;29;20040;-75
2023/04/14 07:34:23;;;;;;;13.43;1.70;;;10.60;99.90;;;;;;4901322;29;20040;-75
2023/04/14 07:36:49;;;;;;;7.93;1.30;;;10.50;99.90;;;;;;4902695;29;20119;-74
2023/04/14 07:39:15;;;;;;;7.30;1.30;;;10.40;99.90;;;;;;4900619;29;20146;-74
2023/04/14 07:41:41;;;;;;;9.70;1.77;;;10.30;99.90;;;;;;4900140;29;20035;-73
2023/04/14 07:44:06;;;;;;;8.95;1.40;;;10.30;99.90;;;;;;4901803;29;20058;-74
2023/04/14 07:46:32;;;;;;;8.32;1.48;;;10.30;99.90;;;;;;4900669;29;20100;-75
2023/04/14 07:48:58;;;;;;;7.55;1.65;;;10.30;99.90;;;;;;4901485;29;20036;-75
2023/04/14 07:51:23;;;;;;;10.88;1.10;;;10.40;99.90;;;;;;4902305;29;20441;-76
2023/04/14 07:53:51;;;;;;;5.45;0.85;;;10.50;99.90;;;;;;4899689;29;20032;-73
2023/04/14 07:56:17;;;;;;;9.30;1.73;;;10.50;99.90;;;;;;4895563;29;20116;-73
2023/04/14 07:58:43;;;;;;;5.43;1.23;;;10.30;99.90;;;;;;4898045;29;20040;-75
2023/04/14 08:01:09;;;;;;;3.92;1.05;;;10.20;99.90;;;;;;4896757;29;20028;-75
2023/04/14 08:03:37;;;;;;;8.18;1.20;;;10.20;99.90;;;;;;4893292;29;20572;-73
2023/04/14 08:06:04;;;;;;;5.20;0.98;;;10.20;99.90;;;;;;4900133;29;20377;-74
2023/04/14 08:08:30;;;;;;;7.45;1.75;;;10.20;99.90;;;;;;4896859;29;20036;-74
2023/04/14 08:10:56;;;;;;;9.65;1.40;;;10.20;99.90;;;;;;4910522;29;20166;-75
2023/04/14 08:13:22;;;;;;;5.57;1.25;;;10.30;99.90;;;;;;4898168;29;20034;-75
2023/04/14 08:15:48;;;;;;;8.27;1.23;;;10.40;99.90;;;;;;4904148;29;20028;-74
2023/04/14 08:18:13;;;;;;;8.27;1.10;;;10.50;99.90;;;;;;4903814;29;20046;-75
2023/04/14 08:20:40;;;;;;;6.65;1.10;;;10.50;99.90;;;;;;4897756;29;20033;-74
2023/04/14 08:23:05;;;;;;;12.43;1.48;;;10.70;99.90;;;;;;4900860;29;20036;-75
2023/04/14 08:25:31;;;;;;;6.50;1.25;;;10.80;99.90;;;;;;4897508;29;20503;-74
2023/04/14 08:27:57;;;;;;;10.13;1.27;;;10.80;99.90;;;;;;4899351;29;20044;-74
2023/04/14 08:30:22;;;;;;;7.40;1.10;;;10.90;99.90;;;;;;4896631;29;20091;-74
2023/04/14 08:32:48;;;;;;;9.23;1.52;;;11.10;99.90;;;;;;4892334;29;20047;-75
2023/04/14 08:35:14;;;;;;;8.52;1.17;;;11.10;99.90;;;;;;4894142;29;20029;-74
2023/04/14 08:37:40;;;;;;;11.52;1.35;;;10.90;99.90;;;;;;4893161;29;20024;-74
2023/04/14 08:40:08;;;;;;;10.63;1.33;;;10.90;99.90;;;;;;4892652;29;20039;-75
2023/04/14 08:42:34;;;;;;;11.90;1.48;;;10.80;99.90;;;;;;4893743;29;20040;-74
2023/04/14 08:45:00;;;;;;;11.90;1.55;;;10.70;99.90;;;;;;4897607;29;20031;-73
2023/04/14 08:47:30;;;;;;;8.65;1.35;;;10.70;99.90;;;;;;4903680;29;20403;-73
2023/04/14 08:50:10;;;;;;;11.83;1.53;;;10.60;99.90;;;;;;4901853;29;20036;-74
2023/04/14 08:52:39;;;;;;;11.60;1.55;;;10.50;99.90;;;;;;4887928;29;20042;-75
2023/04/14 08:55:06;;;;;;;13.57;1.50;;;10.50;99.90;;;;;;4903763;29;20397;-74
2023/04/14 08:57:33;;;;;;;5.70;1.50;;;10.70;99.90;;;;;;4899214;29;20043;-74
2023/04/14 09:00:03;;;;;;;4.60;1.10;;;10.60;99.90;;;;;;4904000;29;20262;-75
2023/04/14 09:02:30;;;;;;;8.50;1.60;;;10.60;99.90;;;;;;4895213;29;20036;-74
2023/04/14 09:04:57;;;;;;;9.48;1.10;;;10.50;99.90;;;;;;4895177;29;20035;-74
2023/04/14 09:07:23;;;;;;;6.50;1.05;;;10.60;99.90;;;;;;4900821;29;20119;-74
2023/04/14 09:09:49;;;;;;;9.20;1.08;;;10.50;99.90;;;;;;4901699;29;20062;-74
2023/04/14 09:12:16;;;;;;;5.80;1.02;;;10.40;99.90;;;;;;4896365;29;20040;-74
2023/04/14 09:14:43;;;;;;;8.45;1.10;;;10.20;99.90;;;;;;4902325;29;20080;-74
2023/04/14 09:17:09;;;;;;;6.53;1.60;;;10.10;99.90;;;;;;4898946;29;20048;-74
2023/04/14 09:19:35;;;;;;;5.55;0.88;;;10.00;99.90;;;;;;4893852;29;20036;-73
2023/04/14 09:22:01;;;;;;;9.57;1.17;;;9.80;99.90;;;;;;4898317;29;20415;-73
2023/04/14 09:24:32;;;;;;;9.43;1.13;;;9.90;99.90;;;;;;4894694;29;20035;-76
2023/04/14 09:27:04;;;;;;;8.27;1.20;;;9.90;99.90;;;;;;4893458;29;20119;-75
2023/04/14 09:29:31;;;;;;;9.15;1.13;;;9.90;99.90;;;;;;4894927;29;20032;-76
2023/04/14 09:31:57;;;;;;;7.60;1.45;;;9.90;99.90;;;;;;4893581;29;20037;-76
2023/04/14 09:34:22;;;;;;;8.00;1.42;;;9.80;99.90;;;;;;4893742;29;20032;-75
2023/04/14 09:37:05;;;;;;;9.13;1.20;;;9.30;99.90;;;;;;4898282;29;20116;-76
2023/04/14 09:39:32;;;;;;;11.30;1.58;;;9.00;99.90;;;;;;4899695;29;20032;-77
2023/04/14 09:41:58;;;;;;;7.57;1.50;;;8.90;99.90;;;;;;4899952;29;20035;-76
2023/04/14 09:44:24;;;;;;;8.23;1.20;;;8.90;99.90;;;;;;4902426;29;20047;-75
2023/04/14 09:47:00;;;;;;;8.05;1.17;;;9.00;99.90;;;;;;4900477;29;20516;-75
2023/04/14 09:49:26;;;;;;;5.75;0.90;;;9.00;99.90;;;;;;4902799;29;20036;-76
2023/04/14 09:51:54;;;;;;;7.70;1.05;;;9.10;99.90;;;;;;4899442;29;20507;-76
2023/04/14 09:54:26;;;;;;;8.77;1.20;;;9.00;99.90;;;;;;4901092;29;20461;-76
2023/04/14 09:56:53;;;;;;;6.00;0.88;;;9.10;99.90;;;;;;4556402;29;10000571;-75
2023/04/14 09:59:39;;;;;;;9.68;1.80;;;8.90;99.90;;;;;;4891169;29;20119;-76
2023/04/14 10:02:06;;;;;;;7.07;1.00;;;8.80;99.90;;;;;;4891284;29;20035;-75
2023/04/14 10:04:32;;;;;;;8.07;1.00;;;8.80;99.90;;;;;;4895064;29;20051;-72
2023/04/14 10:06:58;;;;;;;6.70;1.10;;;8.70;99.90;;;;;;4894928;29;20048;-75
2023/04/14 10:09:28;;;;;;;4.78;1.00;;;8.70;99.90;;;;;;4894379;29;20062;-75
2023/04/14 10:12:14;;;;;;;6.30;0.90;;;8.70;99.90;;;;;;4896798;29;20217;-74
2023/04/14 10:14:41;;;;;;;7.82;1.02;;;8.70;99.90;;;;;;4888868;29;20032;-75
2023/04/14 10:17:07;;;;;;;5.18;0.80;;;8.70;99.90;;;;;;4894646;29;20187;-76
2023/04/14 10:19:35;;;;;;;6.75;0.90;;;8.80;99.90;;;;;;4900661;29;20156;-75
2023/04/14 10:22:01;;;;;;;4.22;0.80;;;8.70;99.90;;;;;;4896448;29;20206;-75
2023/04/14 10:24:27;;;;;;;3.20;0.93;;;8.70;99.90;;;;;;4895940;29;20032;-76
2023/04/14 10:26:54;;;;;;;4.28;0.75;;;8.50;99.90;;;;;;4897560;29;20044;-75
2023/04/14 10:29:20;;;;;;;6.43;0.95;;;8.50;99.90;;;;;;4891467;29;20039;-75
2023/04/14 10:31:55;;;;;;;4.05;1.00;;;8.40;99.90;;;;;;4899723;29;20028;-75
2023/04/14 10:34:22;;;;;;;4.82;0.90;;;8.30;99.90;;;;;;4901978;29;20106;-76
2023/04/14 10:36:48;;;;;;;4.80;0.70;;;8.30;99.90;;;;;;4904021;29;20035;-75
2023/04/14 10:39:21;;;;;;;5.60;0.70;;;8.30;99.90;;;;;;4902509;29;20087;-75
2023/04/14 10:41:48;;;;;;;4.60;0.90;;;8.30;99.90;;;;;;4904214;29;20024;-75
2023/04/14 10:44:31;;;;;;;4.18;0.82;;;8.20;99.90;;;;;;4904059;29;20036;-77
2023/04/14 10:47:06;;;;;;;4.65;0.55;;;8.30;99.90;;;;;;4913597;29;20139;-74
2023/04/14 10:49:39;;;;;;;3.03;0.50;;;8.40;99.90;;;;;;4903673;29;20036;-75
2023/04/14 10:52:26;;;;;;;2.63;0.73;;;8.40;99.90;;;;;;4902624;29;20055;-75
2023/04/14 10:54:52;;;;;;;5.72;0.90;;;8.40;99.90;;;;;;4894903;29;20043;-75
2023/04/14 10:57:24;;;;;;;3.40;0.60;;;8.50;99.90;;;;;;4904376;29;20032;-75
2023/04/14 10:59:52;;;;;;;;;;;8.50;99.90;;;;;;4899345;29;20141;-74
2023/04/14 11:02:28;;;;;;;5.43;0.73;;;8.50;99.90;;;;;;4892279;29;20292;-74
2023/04/14 11:05:12;;;;;;;3.90;1.05;;;8.50;99.90;;;;;;4898987;29;21333;-75
2023/04/14 11:07:44;;;;;;;1.85;0.68;;;8.50;99.90;;;;;;4896987;29;20490;-75
2023/04/14 11:10:15;;;;;;;4.18;0.52;;;8.50;99.90;;;;;;4901890;29;21050;-72
2023/04/14 11:12:42;;;;;;;2.05;0.40;;;8.50;99.90;;;;;;4891745;29;20043;-75
2023/04/14 11:15:08;;;;;;;3.83;0.55;;;8.60;99.90;;;;;;4894422;29;20714;-75
2023/04/14 11:17:38;;;;;;;1.30;0.47;;;8.70;99.90;;;;;;4892393;29;20040;-76
2023/04/14 11:20:18;;;;;;;1.13;0.45;;;8.70;99.90;;;;;;4895270;29;20145;-76
2023/04/14 11:22:45;;;;;;;0.68;0.47;;;8.80;99.90;;;;;;4890111;29;21813;-76
2023/04/14 11:25:12;;;;;;;0.77;0.47;;;8.70;99.90;;;;;;4889293;29;20113;-75
2023/04/14 11:27:39;;;;;;;2.88;0.40;;;8.70;99.90;;;;;;4886516;29;20032;-76
2023/04/14 11:30:13;;;;;;;0.32;0.30;;;8.80;99.90;;;;;;4890256;29;20134;-75
2023/04/14 11:32:56;;;;;;;3.17;0.55;;;9.00;99.90;;;;;;4889212;29;20055;-74
2023/04/14 11:35:24;;;;;;;2.78;0.60;;;9.20;99.90;;;;;;4888702;29;20164;-75
2023/04/14 11:37:54;;;;;;;2.03;0.43;;;9.60;99.90;;;;;;4890130;29;20035;-75
2023/04/14 11:40:21;;;;;;;0.90;0.40;;;10.10;99.90;;;;;;4889115;29;20797;-75
2023/04/14 11:42:51;;;;;;;1.48;0.40;;;10.50;99.90;;;;;;4896168;29;20226;-75
2023/04/14 11:45:17;;;;;;;3.33;0.63;;;11.00;99.90;;;;;;4891813;29;20143;-74
2023/04/14 11:47:55;;;;;;;6.30;0.60;;;11.20;99.90;;;;;;4886580;29;20040;-74
2023/04/14 11:50:21;;;;;;;3.95;0.40;;;11.40;99.90;;;;;;4897542;29;20028;-73
2023/04/14 11:52:46;;;;;;;2.97;0.73;;;11.50;99.90;;;;;;4556883;29;10000421;-74
2023/04/14 11:55:13;;;;;;;2.28;0.50;;;11.40;99.90;;;;;;4897399;29;21243;-74
2023/04/14 11:57:43;;;;;;;5.97;0.77;;;10.90;99.90;;;;;;4893431;29;20385;-72
2023/04/14 12:00:11;;;;;;;2.75;0.60;;;10.50;99.90;;;;;;4898230;29;20448;-73
2023/04/14 12:02:37;;;;;;;5.38;0.60;;;10.60;99.90;;;;;;4894513;29;20127;-73
2023/04/14 12:05:03;;;;;;;3.40;0.60;;;10.60;99.90;;;;;;4886810;29;20508;-73
2023/04/14 12:07:29;;;;;;;2.25;0.50;;;10.60;99.90;;;;;;4891449;29;20877;-73
2023/04/14 12:09:56;;;;;;;2.50;0.70;;;10.50;99.90;;;;;;4886077;29;20047;-73
2023/04/14 12:12:22;;;;;;;3.75;0.77;;;10.80;99.90;;;;;;4886794;29;20035;-73
2023/04/14 12:14:49;;;;;;;6.20;1.00;;;11.10;99.90;;;;;;4899310;29;20028;-73
2023/04/14 12:17:17;;;;;;;2.80;0.40;;;11.00;99.90;;;;;;4896051;29;20058;-73
2023/04/14 12:19:44;;;;;;;1.52;0.38;;;10.90;99.90;;;;;;4901098;29;20032;-73
2023/04/14 12:22:10;;;;;;;2.75;0.47;;;10.70;99.90;;;;;;4902230;29;20036;-73
2023/04/14 12:24:43;;;;;;;5.95;0.80;;;10.60;99.90;;;;;;4897693;29;20032;-74
2023/04/14 12:27:09;;;;;;;6.60;0.88;;;10.40;99.90;;;;;;4896501;29;20040;-75
2023/04/14 12:29:38;;;;;;;4.45;0.60;;;10.30;99.90;;;;;;4896251;29;20055;-74
2023/04/14 12:32:11;;;;;;;6.43;1.00;;;10.20;99.90;;;;;;4898813;29;20024;-74
2023/04/14 12:34:36;;;;;;;3.58;1.00;;;10.20;99.90;;;;;;4900221;29;20032;-74
2023/04/14 12:37:10;;;;;;;3.85;0.80;;;10.10;99.90;;;;;;4898854;29;20821;-74
2023/04/14 12:39:57;;;;;;;5.95;0.68;;;10.40;99.90;;;;;;4901570;29;20058;-74
2023/04/14 12:42:28;;;;;;;3.35;0.65;;;10.70;99.90;;;;;;4898981;29;20032;-74
2023/04/14 12:45:01;;;;;;;11.43;1.73;;;11.00;99.90;;;;;;4900251;29;20400;-74
2023/04/14 12:47:31;;;;;;;3.67;0.98;;;11.10;99.90;;;;;;4900758;29;20044;-74
2023/04/14 12:49:57;;;;;;;6.72;1.63;;;11.10;99.90;;;;;;4904647;29;20083;-73
2023/04/14 12:52:36;;;;;;;3.35;0.93;;;11.10;99.90;;;;;;4902176;29;20083;-73
2023/04/14 12:55:03;;;;;;;7.07;1.05;;;11.00;99.90;;;;;;4902139;29;20139;-74